Time;durP1;ratioP1;P1;durP2;ratioP2;P2;SDS_P1;SDS_P2;PMS_P1;PMS_P2;Temp;Humidity;BMP_temperature;BMP_pressure;BME280_temperature;BME280_humidity;BME280_pressure;Samples;Min_cycle;Max_cycle;Signal;HPM_P1;HPM_P2
2022/11/18 00:01:41;;;;;;;9.40;3.90;;;;;8.80;96129.00;;;;108939;1266;41156;-64
2022/11/18 00:04:10;;;;;;;8.00;3.50;;;;;8.80;96125.40;;;;108890;1264;41189;-64
2022/11/18 00:06:40;;;;;;;8.50;3.60;;;;;8.80;96126.80;;;;108743;1271;41324;-64
2022/11/18 00:09:10;;;;;;;8.20;3.60;;;;;8.80;96134.40;;;;108841;1271;41699;-65
2022/11/18 00:14:27;;;;;;;10.10;4.10;;;;;8.80;96139.80;;;;108778;1270;41142;-64
2022/11/18 00:16:59;;;;;;;8.90;3.70;;;;;8.74;96138.40;;;;108896;1266;41923;-65
2022/11/18 00:19:38;;;;;;;9.30;4.20;;;;;8.74;96147.00;;;;108824;1266;41948;-65
2022/11/18 00:22:11;;;;;;;8.50;3.70;;;;;8.70;96139.00;;;;108811;1271;41231;-64
2022/11/18 00:24:40;;;;;;;8.90;3.70;;;;;8.70;96127.80;;;;108797;1271;41141;-63
2022/11/18 00:27:10;;;;;;;8.90;3.60;;;;;8.70;96131.80;;;;108786;1271;41150;-64
2022/11/18 00:29:39;;;;;;;9.30;4.10;;;;;8.70;96130.40;;;;108862;1266;41150;-64
2022/11/18 00:32:08;;;;;;;8.80;3.70;;;;;8.70;96138.00;;;;108860;1271;41229;-64
2022/11/18 00:34:38;;;;;;;9.20;3.60;;;;;8.70;96138.40;;;;108906;1271;41606;-64
2022/11/18 00:37:08;;;;;;;8.50;3.60;;;;;8.70;96140.80;;;;108823;1271;41313;-64
2022/11/18 00:39:38;;;;;;;7.80;3.40;;;;;8.70;96141.20;;;;108602;1271;41164;-64
2022/11/18 00:44:56;;;;;;;8.80;3.90;;;;;8.76;96141.80;;;;108587;1271;42609;-64
2022/11/18 00:47:27;;;;;;;9.00;3.50;;;;;8.74;96129.40;;;;108607;1271;41636;-64
2022/11/18 00:49:57;;;;;;;9.40;3.60;;;;;8.72;96122.60;;;;108800;1266;41658;-64
2022/11/18 00:52:28;;;;;;;8.50;3.70;;;;;8.72;96122.20;;;;108928;1266;41603;-64
2022/11/18 00:54:57;;;;;;;8.50;3.80;;;;;8.74;96122.40;;;;108884;1266;41224;-64
2022/11/18 00:57:27;;;;;;;7.70;3.20;;;;;8.78;96116.40;;;;108938;1270;41144;-63
2022/11/18 00:59:57;;;;;;;7.70;3.60;;;;;8.76;96108.60;;;;108901;1270;41475;-63
2022/11/18 01:02:28;;;;;;;8.70;3.80;;;;;8.74;96113.20;;;;108937;1270;41944;-64
2022/11/18 01:04:59;;;;;;;8.70;3.80;;;;;8.70;96105.40;;;;108875;1270;41797;-64
2022/11/18 01:07:29;;;;;;;11.50;5.40;;;;;8.70;96101.20;;;;108913;1271;41180;-63
2022/11/18 01:09:59;;;;;;;;;;;;;8.70;96088.40;;;;108902;1270;41307;-64
2022/11/18 01:15:38;;;;;;;12.40;5.70;;;;;8.60;96074.00;;;;108745;1271;41150;-63
2022/11/18 01:18:09;;;;;;;10.70;4.90;;;;;8.60;96072.60;;;;108793;1271;41149;-63
2022/11/18 01:20:39;;;;;;;10.90;5.30;;;;;8.50;96099.20;;;;108914;1271;42050;-63
2022/11/18 01:23:08;;;;;;;11.60;4.80;;;;;8.50;96092.40;;;;108844;1270;42542;-64
2022/11/18 01:25:41;;;;;;;9.10;3.90;;;;;8.50;96080.20;;;;108907;1269;41138;-64
2022/11/18 01:28:11;;;;;;;7.30;3.30;;;;;8.50;96089.00;;;;108884;1271;41150;-64
2022/11/18 01:30:41;;;;;;;8.80;3.70;;;;;8.50;96078.80;;;;108900;1270;41725;-64
2022/11/18 01:33:11;;;;;;;8.20;3.50;;;;;8.60;96087.60;;;;108894;1270;41901;-64
2022/11/18 01:35:43;;;;;;;7.10;3.50;;;;;8.60;96087.20;;;;108812;1271;41150;-64
2022/11/18 01:38:12;;;;;;;;;;;;;8.60;96084.20;;;;108660;1271;42564;-63
2022/11/18 01:40:42;;;;;;;9.50;3.70;;;;;8.60;96074.80;;;;108803;1271;41698;-64
2022/11/18 01:43:15;;;;;;;8.40;3.40;;;;;8.60;96081.80;;;;108788;1271;41311;-64
2022/11/18 01:45:47;;;;;;;8.10;3.40;;;;;8.60;96078.20;;;;108809;1270;41161;-64
2022/11/18 01:48:27;;;;;;;8.50;3.50;;;;;8.60;96077.20;;;;108939;1261;41377;-64
2022/11/18 01:51:02;;;;;;;8.90;3.70;;;;;8.60;96072.20;;;;108922;1270;41610;-64
2022/11/18 01:53:36;;;;;;;8.10;3.80;;;;;8.64;96074.40;;;;108900;1271;41679;-64
2022/11/18 01:56:18;;;;;;;8.20;3.70;;;;;8.70;96065.80;;;;108933;1271;41158;-64
2022/11/18 01:59:08;;;;;;;9.00;3.50;;;;;8.70;96060.80;;;;108659;1271;41227;-63
2022/11/18 02:01:39;;;;;;;7.50;3.30;;;;;8.70;96056.80;;;;108574;1271;41168;-64
2022/11/18 02:04:09;;;;;;;8.90;3.40;;;;;8.70;96052.00;;;;108829;1270;41149;-64
2022/11/18 02:06:40;;;;;;;8.20;3.90;;;;;8.70;96048.20;;;;108937;1266;41896;-65
2022/11/18 02:09:10;;;;;;;8.60;3.40;;;;;8.70;96052.40;;;;108728;1270;41230;-63
2022/11/18 02:11:53;;;;;;;9.70;3.70;;;;;8.70;96046.60;;;;108582;1271;41234;-63
2022/11/18 02:14:27;;;;;;;8.20;3.40;;;;;8.70;96048.20;;;;108628;1269;41155;-62
2022/11/18 02:17:03;;;;;;;9.20;3.90;;;;;8.70;96043.00;;;;108926;1271;41160;-64
2022/11/18 02:19:35;;;;;;;10.90;4.00;;;;;8.70;96037.20;;;;108945;1266;41145;-63
2022/11/18 02:22:33;;;;;;;8.40;3.80;;;;;8.70;96030.80;;;;108897;1271;41147;-64
2022/11/18 02:25:13;;;;;;;12.80;5.10;;;;;8.70;96025.60;;;;108938;1269;41684;-64
2022/11/18 02:28:01;;;;;;;11.80;4.60;;;;;8.60;96032.60;;;;108922;1271;41232;-63
2022/11/18 02:30:36;;;;;;;9.60;4.60;;;;;8.60;96035.60;;;;108936;1271;41150;-64
2022/11/18 02:33:17;;;;;;;10.40;4.60;;;;;8.60;96034.20;;;;108891;1271;41250;-63
2022/11/18 02:36:01;;;;;;;9.20;4.50;;;;;8.60;96028.20;;;;108929;1270;41139;-64
2022/11/18 02:38:37;;;;;;;10.40;4.70;;;;;8.60;96021.40;;;;108610;1271;41204;-63
2022/11/18 02:41:14;;;;;;;11.20;4.60;;;;;8.60;96024.80;;;;108874;1270;42296;-64
2022/11/18 02:43:53;;;;;;;9.60;4.30;;;;;8.60;96029.00;;;;108920;1271;41333;-63
2022/11/18 02:46:28;;;;;;;9.90;4.30;;;;;8.60;96026.20;;;;108779;1271;41160;-63
2022/11/18 02:49:02;;;;;;;8.20;3.50;;;;;8.60;96030.20;;;;108788;1271;41148;-63
2022/11/18 02:51:31;;;;;;;9.10;3.60;;;;;8.60;96040.40;;;;108767;1270;41156;-63
2022/11/18 02:54:06;;;;;;;8.80;3.50;;;;;8.60;96039.40;;;;108822;1270;41144;-63
2022/11/18 02:56:37;;;;;;;9.40;4.30;;;;;8.60;96042.60;;;;108927;1270;41184;-64
2022/11/18 02:59:06;;;;;;;10.70;4.30;;;;;8.60;96041.20;;;;108957;1270;41167;-64
2022/11/18 03:01:36;;;;;;;8.50;3.70;;;;;8.60;96044.40;;;;108922;1256;41942;-64
2022/11/18 03:04:06;;;;;;;9.20;4.00;;;;;8.60;96040.20;;;;108693;1262;41184;-64
2022/11/18 03:06:42;;;;;;;9.10;3.70;;;;;8.60;96041.40;;;;108805;1271;41625;-63
2022/11/18 03:09:32;;;;;;;8.10;3.10;;;;;8.60;96039.20;;;;108882;1270;41535;-63
2022/11/18 03:12:41;;;;;;;8.20;3.40;;;;;8.60;96040.80;;;;108891;1263;41153;-64
2022/11/18 03:15:18;;;;;;;8.20;3.20;;;;;8.60;96039.80;;;;108438;1272;41170;-64
2022/11/18 03:17:48;;;;;;;8.60;3.30;;;;;8.60;96040.80;;;;108684;1257;41166;-63
2022/11/18 03:20:40;;;;;;;6.40;2.90;;;;;8.60;96040.80;;;;108814;1271;41239;-63
2022/11/18 03:23:37;;;;;;;8.20;3.30;;;;;8.66;96037.80;;;;108861;1271;41964;-64
2022/11/18 03:26:12;;;;;;;6.80;3.00;;;;;8.66;96042.00;;;;108905;1270;41643;-64
2022/11/18 03:28:52;;;;;;;7.40;3.00;;;;;8.66;96045.80;;;;108839;1271;41249;-63
2022/11/18 03:31:28;;;;;;;7.80;3.70;;;;;8.70;96046.60;;;;108774;1270;42373;-64
2022/11/18 03:34:35;;;;;;;7.80;3.50;;;;;8.70;96034.40;;;;108696;1271;41177;-64
2022/11/18 03:37:07;;;;;;;8.10;2.90;;;;;8.70;96042.60;;;;108576;1277;41160;-63
2022/11/18 03:39:41;;;;;;;8.40;3.40;;;;;8.70;96042.60;;;;108844;1271;41144;-64
2022/11/18 03:42:28;;;;;;;7.60;3.30;;;;;8.70;96046.20;;;;108774;1271;41158;-64
2022/11/18 03:45:03;;;;;;;8.30;3.90;;;;;8.70;96042.40;;;;108722;1268;41157;-64
2022/11/18 03:47:35;;;;;;;8.20;3.20;;;;;8.70;96041.40;;;;108552;1271;41699;-63
2022/11/18 03:50:26;;;;;;;8.30;3.70;;;;;8.68;96050.40;;;;108754;1271;41139;-64
2022/11/18 03:52:56;;;;;;;8.70;3.50;;;;;8.70;96050.80;;;;108748;1271;41470;-64
2022/11/18 03:55:30;;;;;;;8.20;3.50;;;;;8.70;96051.20;;;;108844;1271;41801;-64
2022/11/18 03:58:17;;;;;;;7.80;3.40;;;;;8.70;96057.00;;;;108926;1271;41172;-63
2022/11/18 04:00:50;;;;;;;9.70;4.20;;;;;8.70;96047.40;;;;108726;1271;41392;-64
2022/11/18 04:03:20;;;;;;;8.20;3.40;;;;;8.70;96043.40;;;;108583;1269;41262;-64
2022/11/18 04:05:51;;;;;;;8.90;3.60;;;;;8.68;96037.60;;;;108601;1271;41706;-64
2022/11/18 04:08:28;;;;;;;8.00;3.50;;;;;8.60;96039.40;;;;108639;1271;41237;-64
2022/11/18 04:11:01;;;;;;;8.80;3.50;;;;;8.66;96033.00;;;;108607;1271;41181;-64
2022/11/18 04:13:33;;;;;;;8.10;3.70;;;;;8.62;96024.80;;;;108862;1270;41993;-64
2022/11/18 04:16:03;;;;;;;6.90;2.90;;;;;8.64;96023.80;;;;108790;1271;41235;-64
2022/11/18 04:18:33;;;;;;;;;;;;;8.60;96025.00;;;;108889;1271;41954;-64
2022/11/18 04:21:03;;;;;;;7.50;3.30;;;;;8.60;96027.20;;;;108693;1271;41671;-63
2022/11/18 04:23:32;;;;;;;7.90;3.00;;;;;8.60;96029.60;;;;108846;1270;41346;-64
2022/11/18 04:26:01;;;;;;;9.70;3.30;;;;;8.60;96036.20;;;;108922;1271;41249;-64
2022/11/18 04:28:31;;;;;;;9.10;3.70;;;;;8.60;96029.40;;;;108907;1271;42592;-63
2022/11/18 04:31:00;;;;;;;8.00;3.40;;;;;8.60;96036.80;;;;108895;1271;41381;-64
2022/11/18 04:33:29;;;;;;;8.50;3.60;;;;;8.60;96037.20;;;;108869;1271;41239;-64
2022/11/18 04:36:01;;;;;;;9.20;3.50;;;;;8.56;96034.80;;;;108661;1270;42580;-64
2022/11/18 04:38:31;;;;;;;12.00;4.10;;;;;8.50;96041.00;;;;108622;1271;42801;-64
2022/11/18 04:41:00;;;;;;;8.40;3.70;;;;;8.50;96040.60;;;;108600;1271;42576;-63
2022/11/18 04:43:29;;;;;;;9.70;4.30;;;;;8.50;96038.20;;;;108645;1271;41142;-64
2022/11/18 04:45:58;;;;;;;8.30;3.70;;;;;8.50;96036.00;;;;108929;1267;41163;-65
2022/11/18 04:48:28;;;;;;;6.20;2.90;;;;;8.48;96036.80;;;;108938;1270;41845;-65
2022/11/18 04:50:57;;;;;;;7.60;3.10;;;;;8.44;96034.80;;;;108787;1271;41137;-64
2022/11/18 04:53:26;;;;;;;9.20;3.70;;;;;8.40;96027.40;;;;108939;1270;41161;-63
2022/11/18 04:56:04;;;;;;;12.30;4.60;;;;;8.40;96028.00;;;;108807;1266;41138;-65
2022/11/18 04:58:33;;;;;;;11.60;4.90;;;;;8.40;96024.00;;;;108812;1270;41868;-64
2022/11/18 05:01:01;;;;;;;13.50;5.10;;;;;8.32;96020.40;;;;108907;1271;42185;-64
2022/11/18 05:03:31;;;;;;;11.00;4.90;;;;;8.30;96020.40;;;;108751;1267;41142;-64
2022/11/18 05:06:01;;;;;;;10.60;5.10;;;;;8.30;96020.40;;;;108773;1263;41148;-64
2022/11/18 05:08:30;;;;;;;11.70;4.70;;;;;8.30;96022.40;;;;108798;1271;41153;-64
2022/11/18 05:13:50;;;;;;;9.90;4.20;;;;;8.30;96021.60;;;;108781;1270;41161;-64
2022/11/18 05:16:19;;;;;;;10.20;4.20;;;;;8.24;96012.60;;;;108909;1271;41235;-64
2022/11/18 05:18:48;;;;;;;9.30;3.90;;;;;8.20;96015.00;;;;108897;1271;41241;-64
2022/11/18 05:21:18;;;;;;;8.70;3.30;;;;;8.20;96003.80;;;;108821;1263;41229;-64
2022/11/18 05:23:47;;;;;;;8.50;3.40;;;;;8.20;95995.60;;;;108671;1271;41500;-64
2022/11/18 05:26:16;;;;;;;8.20;3.30;;;;;8.20;95993.80;;;;108688;1271;41407;-64
2022/11/18 05:28:46;;;;;;;9.10;4.20;;;;;8.10;96006.20;;;;108584;1271;41694;-64
2022/11/18 05:31:15;;;;;;;9.30;3.70;;;;;8.10;96024.60;;;;108818;1271;41627;-64
2022/11/18 05:33:45;;;;;;;9.10;3.70;;;;;8.10;96037.20;;;;108947;1266;41426;-64
2022/11/18 05:36:16;;;;;;;8.90;3.40;;;;;8.10;96035.80;;;;108928;1271;41875;-65
2022/11/18 05:38:45;;;;;;;8.90;4.10;;;;;8.10;96041.60;;;;108825;1266;41184;-64
2022/11/18 05:44:03;;;;;;;7.70;3.20;;;;;8.04;96036.20;;;;108708;1271;41701;-64
2022/11/18 05:46:33;;;;;;;7.30;3.10;;;;;8.00;96035.40;;;;108938;1271;41268;-64
2022/11/18 05:49:02;;;;;;;7.70;3.40;;;;;8.00;96039.80;;;;108744;1270;41245;-64
2022/11/18 05:51:31;;;;;;;8.20;3.20;;;;;8.00;96043.00;;;;108796;1270;41637;-64
2022/11/18 05:54:03;;;;;;;8.20;3.50;;;;;8.00;96051.20;;;;108912;1264;41145;-63
2022/11/18 05:56:36;;;;;;;7.60;3.50;;;;;8.00;96051.40;;;;108874;1270;41151;-64
2022/11/18 05:59:06;;;;;;;8.50;3.60;;;;;8.00;96055.40;;;;108872;1270;41619;-64
2022/11/18 06:02:02;;;;;;;9.30;3.70;;;;;8.00;96050.60;;;;108931;1271;41600;-64
2022/11/18 06:04:31;;;;;;;8.10;3.60;;;;;8.08;96053.40;;;;108581;1271;42440;-63
2022/11/18 06:07:19;;;;;;;10.50;4.30;;;;;8.10;96054.80;;;;108706;1271;41254;-63
2022/11/18 06:09:52;;;;;;;7.30;3.40;;;;;8.10;96051.40;;;;108858;1271;41152;-63
2022/11/18 06:12:25;;;;;;;10.10;4.60;;;;;8.10;96039.60;;;;108768;1271;41242;-64
2022/11/18 06:15:03;;;;;;;9.90;4.50;;;;;8.10;96039.40;;;;108867;1271;41145;-63
2022/11/18 06:18:00;;;;;;;11.00;4.80;;;;;8.14;96039.80;;;;108724;1271;41164;-63
2022/11/18 06:20:28;;;;;;;10.50;5.20;;;;;8.16;96045.40;;;;108734;1266;41235;-64
2022/11/18 06:22:59;;;;;;;12.20;5.30;;;;;8.20;96049.80;;;;108775;1271;41186;-64
2022/11/18 06:25:29;;;;;;;13.10;5.50;;;;;8.20;96047.20;;;;108914;1271;41149;-64
2022/11/18 06:28:00;;;;;;;12.50;5.60;;;;;8.20;96052.40;;;;108879;1267;41596;-64
2022/11/18 06:30:29;;;;;;;12.50;5.40;;;;;8.20;96052.40;;;;108678;1271;41605;-64
2022/11/18 06:32:58;;;;;;;12.00;5.00;;;;;8.24;96057.40;;;;108840;1271;41897;-64
2022/11/18 06:35:26;;;;;;;10.30;4.70;;;;;8.30;96065.80;;;;108897;1261;41175;-64
2022/11/18 06:37:56;;;;;;;11.00;4.50;;;;;8.30;96065.80;;;;108667;1271;41214;-64
2022/11/18 06:40:25;;;;;;;10.10;4.20;;;;;8.40;96070.60;;;;108863;1270;41375;-64
2022/11/18 06:48:49;;;;;;;20.90;9.40;;;;;8.58;96076.20;;;;108911;1271;41159;-64
2022/11/18 06:51:18;;;;;;;15.20;6.60;;;;;8.60;96075.80;;;;108930;1271;41933;-64
2022/11/18 06:53:47;;;;;;;11.20;5.00;;;;;8.70;96072.20;;;;108857;1271;41281;-64
2022/11/18 06:56:17;;;;;;;12.20;5.20;;;;;8.70;96067.60;;;;108930;1270;41252;-64
2022/11/18 06:58:46;;;;;;;9.70;4.50;;;;;8.80;96071.20;;;;108691;1271;42078;-63
2022/11/18 07:01:20;;;;;;;10.10;4.50;;;;;8.90;96066.40;;;;108628;1268;41168;-64
2022/11/18 07:03:49;;;;;;;12.00;5.50;;;;;9.00;96074.00;;;;108885;1266;41303;-64
2022/11/18 07:06:23;;;;;;;10.80;5.00;;;;;9.02;96072.40;;;;108860;1271;41340;-64
2022/11/18 07:08:52;;;;;;;10.20;4.60;;;;;9.10;96069.60;;;;108906;1270;41234;-64
2022/11/18 07:11:23;;;;;;;9.50;4.10;;;;;9.20;96072.40;;;;108820;1271;41241;-64
2022/11/18 07:13:52;;;;;;;8.60;3.80;;;;;9.26;96070.80;;;;108347;1266;397364;-61
2022/11/18 07:16:23;;;;;;;9.20;3.90;;;;;9.36;96064.00;;;;108601;1258;43569;-62
2022/11/18 07:18:53;;;;;;;8.90;3.70;;;;;9.40;96059.00;;;;108970;1267;41149;-63
2022/11/18 07:21:27;;;;;;;9.00;3.90;;;;;9.50;96053.80;;;;108901;1271;41622;-65
2022/11/18 07:24:06;;;;;;;8.90;3.80;;;;;9.50;96049.20;;;;108924;1270;42467;-62
2022/11/18 07:26:35;;;;;;;9.50;4.10;;;;;9.60;96035.20;;;;108738;1271;41146;-65
2022/11/18 07:29:05;;;;;;;10.60;4.90;;;;;9.70;96026.20;;;;108877;1271;41610;-63
2022/11/18 07:31:36;;;;;;;11.40;5.20;;;;;9.80;96030.00;;;;108743;1270;41240;-63
2022/11/18 07:34:06;;;;;;;12.70;6.10;;;;;9.96;96032.40;;;;108858;1266;41146;-63
2022/11/18 07:36:34;;;;;;;14.40;5.40;;;;;10.10;96030.80;;;;108831;1263;41248;-63
2022/11/18 07:39:06;;;;;;;11.50;5.70;;;;;10.20;96030.20;;;;108943;1267;41171;-64
2022/11/18 07:41:35;;;;;;;13.30;6.50;;;;;10.30;96038.80;;;;108807;1271;41152;-65
2022/11/18 07:44:06;;;;;;;13.70;6.10;;;;;10.34;96042.80;;;;108716;1274;41160;-64
2022/11/18 07:46:45;;;;;;;12.10;5.30;;;;;10.46;96040.00;;;;108697;1271;41185;-61
2022/11/18 07:49:21;;;;;;;12.60;6.20;;;;;10.60;96043.00;;;;108947;1266;41936;-63
2022/11/18 07:51:53;;;;;;;14.40;5.90;;;;;10.76;96041.60;;;;108580;1267;41156;-64
2022/11/18 07:54:22;;;;;;;18.70;6.10;;;;;10.96;96038.40;;;;108706;1271;41165;-62
2022/11/18 07:56:51;;;;;;;11.70;5.50;;;;;11.10;96036.40;;;;108849;1268;42532;-63
2022/11/18 07:59:25;;;;;;;11.20;4.50;;;;;11.30;96032.20;;;;108890;1270;41697;-63
2022/11/18 08:02:02;;;;;;;10.30;4.80;;;;;11.50;96028.40;;;;108836;1271;41174;-64
2022/11/18 08:04:46;;;;;;;8.30;3.90;;;;;11.60;96022.40;;;;108872;1270;41305;-63
2022/11/18 08:07:26;;;;;;;11.30;4.40;;;;;11.70;96009.20;;;;108873;1270;41530;-64
2022/11/18 08:10:04;;;;;;;9.40;3.90;;;;;11.90;96010.40;;;;108780;1270;40824;-64
2022/11/18 08:15:10;;;;;;;8.50;4.40;;;;;13.30;96032.40;;;;105511;1305;542163;-46
2022/11/18 08:17:39;;;;;;;10.70;4.70;;;;;13.86;96027.60;;;;108033;1284;41209;-48
2022/11/18 08:20:08;;;;;;;12.10;5.30;;;;;14.80;96030.80;;;;108054;1283;41244;-47
2022/11/18 08:22:37;;;;;;;10.40;5.30;;;;;15.66;96028.80;;;;108180;1282;41150;-58
2022/11/18 08:25:07;;;;;;;16.10;7.60;;;;;16.42;96024.00;;;;108166;1282;41720;-62
2022/11/18 08:27:36;;;;;;;10.90;5.70;;;;;17.54;96030.20;;;;108207;1282;41893;-59
2022/11/18 08:30:05;;;;;;;11.60;5.10;;;;;18.22;96022.80;;;;108260;1271;41602;-59
2022/11/18 08:32:34;;;;;;;9.70;4.90;;;;;18.76;96033.40;;;;108793;1271;41232;-60
2022/11/18 08:35:04;;;;;;;8.60;4.20;;;;;19.24;96032.60;;;;108803;1271;41141;-66
2022/11/18 08:37:38;;;;;;;10.20;4.60;;;;;19.70;96026.80;;;;108758;1270;41139;-65
2022/11/18 08:40:10;;;;;;;9.60;4.30;;;;;20.08;96020.40;;;;108733;1267;41693;-62
2022/11/18 08:42:40;;;;;;;8.70;3.80;;;;;20.40;96019.40;;;;108604;1272;42321;-59
2022/11/18 08:45:10;;;;;;;9.90;4.30;;;;;20.70;96014.40;;;;108625;1272;41628;-54
2022/11/18 08:47:39;;;;;;;9.00;4.30;;;;;21.00;96023.40;;;;108701;1270;41148;-57
2022/11/18 08:50:10;;;;;;;9.60;4.00;;;;;21.28;96020.40;;;;108797;1272;41131;-57
2022/11/18 08:52:39;;;;;;;10.00;4.20;;;;;21.50;96023.00;;;;108819;1272;41920;-56
2022/11/18 08:55:09;;;;;;;9.40;3.90;;;;;21.70;96018.00;;;;108801;1272;41229;-56
2022/11/18 08:57:37;;;;;;;9.60;4.10;;;;;21.82;96017.40;;;;108801;1267;41150;-56
2022/11/18 09:00:07;;;;;;;10.00;4.00;;;;;22.00;96014.60;;;;108788;1264;41215;-57
2022/11/18 09:02:36;;;;;;;10.00;4.00;;;;;22.10;96008.00;;;;108719;1272;41156;-58
2022/11/18 09:05:05;;;;;;;10.20;4.10;;;;;22.22;96004.60;;;;108804;1269;41133;-60
2022/11/18 09:07:34;;;;;;;10.80;3.90;;;;;22.36;96005.40;;;;108771;1271;41207;-57
2022/11/18 09:10:03;;;;;;;8.10;3.80;;;;;22.50;96003.60;;;;108803;1267;42018;-56
2022/11/18 09:12:34;;;;;;;8.90;3.60;;;;;22.60;95994.40;;;;108825;1268;41172;-59
2022/11/18 09:15:03;;;;;;;8.60;3.50;;;;;22.74;95993.60;;;;108792;1271;41698;-59
2022/11/18 09:17:41;;;;;;;10.60;3.80;;;;;22.90;95991.40;;;;108649;1269;41230;-57
2022/11/18 09:20:17;;;;;;;8.30;3.60;;;;;23.00;95993.20;;;;108761;1271;41156;-58
2022/11/18 09:22:46;;;;;;;7.80;3.50;;;;;23.10;95990.60;;;;108824;1267;41666;-62
2022/11/18 09:25:16;;;;;;;7.70;3.50;;;;;23.20;95996.80;;;;108702;1272;41171;-64
2022/11/18 09:27:46;;;;;;;8.60;3.10;;;;;23.30;95988.20;;;;108789;1271;41141;-61
2022/11/18 09:30:16;;;;;;;12.00;3.70;;;;;23.40;95996.20;;;;108755;1272;41160;-63
2022/11/18 09:32:46;;;;;;;9.70;3.40;;;;;23.40;95994.80;;;;108762;1267;41233;-64
2022/11/18 09:35:15;;;;;;;7.80;3.20;;;;;23.50;96000.60;;;;108696;1264;41164;-62
2022/11/18 09:37:43;;;;;;;11.00;3.20;;;;;23.50;95992.80;;;;108678;1272;41154;-61
2022/11/18 09:40:17;;;;;;;9.70;3.00;;;;;23.50;95989.60;;;;108724;1271;41233;-56
2022/11/18 09:43:01;;;;;;;7.00;2.90;;;;;23.80;95978.80;;;;108700;1267;41525;-57
2022/11/18 09:45:36;;;;;;;7.60;2.70;;;;;24.46;95975.00;;;;108620;1270;41157;-60
2022/11/18 09:49:11;;;;;;;12.40;3.00;;;;;24.98;95974.60;;;;108768;1272;41662;-58
2022/11/18 09:51:10;;;;;;;6.10;2.60;;;;;25.40;95964.20;;;;108602;1271;41513;-56
2022/11/18 09:53:43;;;;;;;6.90;2.70;;;;;25.70;95962.00;;;;108775;1258;41597;-56
2022/11/18 09:56:14;;;;;;;8.10;2.70;;;;;25.90;95957.00;;;;108787;1272;41924;-55
2022/11/18 09:58:44;;;;;;;8.10;2.60;;;;;26.10;95954.60;;;;108678;1272;41144;-54
2022/11/18 10:01:17;;;;;;;6.80;2.40;;;;;26.22;95949.00;;;;108790;1272;41361;-56
2022/11/18 10:03:45;;;;;;;5.30;2.30;;;;;26.40;95945.40;;;;108596;1272;41146;-55
2022/11/18 10:06:25;;;;;;;8.20;2.30;;;;;26.50;95944.20;;;;108632;1272;41149;-55
2022/11/18 10:09:04;;;;;;;5.90;2.30;;;;;26.70;95948.00;;;;108630;1264;41145;-55
2022/11/18 10:11:59;;;;;;;9.10;2.50;;;;;26.78;95948.80;;;;108642;1268;42514;-59
2022/11/18 10:14:46;;;;;;;6.00;2.10;;;;;26.78;95937.80;;;;108699;1271;41397;-55
2022/11/18 10:17:19;;;;;;;17.00;2.60;;;;;26.70;95932.80;;;;108681;1272;41159;-59
2022/11/18 10:20:17;;;;;;;4.40;2.10;;;;;26.70;95929.80;;;;108693;1272;41155;-55
2022/11/18 10:22:53;;;;;;;6.70;2.40;;;;;26.70;95926.60;;;;108643;1271;42091;-57
2022/11/18 10:25:22;;;;;;;5.40;2.10;;;;;26.70;95923.00;;;;108673;1263;41145;-55
2022/11/18 10:27:51;;;;;;;7.70;2.30;;;;;26.70;95922.00;;;;108597;1272;41151;-55
2022/11/18 10:30:25;;;;;;;6.40;2.30;;;;;26.70;95922.80;;;;108745;1272;41156;-56
2022/11/18 10:33:02;;;;;;;9.60;2.50;;;;;26.60;95919.80;;;;108703;1272;40774;-53
2022/11/18 10:35:34;;;;;;;4.80;2.00;;;;;26.50;95923.20;;;;108693;1272;41225;-56
2022/11/18 10:38:23;;;;;;;8.90;2.40;;;;;26.50;95913.60;;;;108803;1272;41144;-55
2022/11/18 10:40:51;;;;;;;5.20;2.30;;;;;26.40;95910.80;;;;108823;1271;41144;-56
2022/11/18 10:43:42;;;;;;;5.20;2.10;;;;;26.40;95912.20;;;;108848;1271;41152;-56
2022/11/18 10:46:30;;;;;;;5.80;2.00;;;;;26.40;95906.60;;;;108753;1272;41178;-56
2022/11/18 10:49:08;;;;;;;8.10;2.10;;;;;26.30;95907.60;;;;108641;1272;42403;-55
2022/11/18 10:52:05;;;;;;;6.30;2.10;;;;;26.28;95910.60;;;;108674;1272;42511;-55
2022/11/18 10:54:36;;;;;;;6.10;2.30;;;;;26.20;95908.60;;;;108705;1264;41139;-55
2022/11/18 10:57:10;;;;;;;8.90;2.40;;;;;26.10;95906.40;;;;108672;1272;42408;-55
2022/11/18 10:59:40;;;;;;;6.50;2.20;;;;;26.00;95904.40;;;;108626;1272;41742;-55
2022/11/18 11:02:15;;;;;;;5.70;2.00;;;;;25.90;95905.20;;;;108748;1272;41135;-57
2022/11/18 11:04:46;;;;;;;6.40;2.10;;;;;25.80;95901.80;;;;108767;1265;41149;-57
2022/11/18 11:07:24;;;;;;;6.10;2.20;;;;;25.70;95892.60;;;;108710;1272;41154;-55
2022/11/18 11:10:14;;;;;;;6.10;2.10;;;;;25.60;95891.40;;;;108697;1267;41691;-57
2022/11/18 11:12:48;;;;;;;;;;;;;25.50;95891.80;;;;108786;1272;41152;-56
2022/11/18 11:15:37;;;;;;;7.40;2.30;;;;;25.42;95889.60;;;;108632;1267;41145;-55
2022/11/18 11:21:17;;;;;;;5.00;1.90;;;;;25.30;95882.00;;;;108685;1272;42425;-57
2022/11/18 11:23:46;;;;;;;4.30;1.80;;;;;25.20;95881.80;;;;108651;1275;41581;-55
2022/11/18 11:26:57;;;;;;;5.50;2.10;;;;;25.20;95884.20;;;;108799;1272;41140;-57
2022/11/18 11:30:18;;;;;;;8.20;2.50;;;;;25.10;95884.60;;;;108576;1272;41704;-59
2022/11/18 11:33:30;;;;;;;6.20;2.10;;;;;25.00;95875.00;;;;108717;1272;41220;-57
2022/11/18 11:36:04;;;;;;;5.50;2.00;;;;;24.94;95876.80;;;;108417;1272;41323;-56
2022/11/18 11:38:36;;;;;;;4.80;1.90;;;;;24.90;95876.20;;;;108691;1272;41605;-55
2022/11/18 11:41:22;;;;;;;5.50;2.10;;;;;24.80;95881.20;;;;108717;1268;41145;-57
2022/11/18 11:44:08;;;;;;;6.20;1.90;;;;;24.80;95873.40;;;;108758;1272;41138;-60
2022/11/18 11:47:45;;;;;;;6.00;2.20;;;;;24.70;95867.60;;;;108822;1267;41702;-57
2022/11/18 11:50:00;;;;;;;5.40;2.20;;;;;24.70;95867.80;;;;108626;1275;42522;-60
2022/11/18 11:52:44;;;;;;;5.60;1.90;;;;;24.60;95863.20;;;;108768;1275;41136;-58
2022/11/18 11:55:35;;;;;;;5.70;1.80;;;;;24.60;95862.40;;;;108736;1275;41144;-57
2022/11/18 11:58:32;;;;;;;5.10;1.90;;;;;24.60;95864.80;;;;108737;1275;41149;-57
2022/11/18 12:01:19;;;;;;;7.30;2.10;;;;;24.50;95858.20;;;;108778;1273;41234;-57
2022/11/18 12:03:58;;;;;;;4.80;1.80;;;;;24.50;95858.60;;;;108721;1275;41500;-57
2022/11/18 12:06:27;;;;;;;5.70;2.20;;;;;24.40;95857.20;;;;108737;1275;41450;-56
2022/11/18 12:09:05;;;;;;;5.40;1.90;;;;;24.40;95853.80;;;;108663;1274;41401;-56
2022/11/18 12:11:45;;;;;;;4.70;1.80;;;;;24.40;95853.80;;;;108717;1273;42048;-57
2022/11/18 12:14:34;;;;;;;5.10;2.00;;;;;24.32;95849.20;;;;108682;1275;41176;-56
2022/11/18 12:17:33;;;;;;;4.90;1.90;;;;;24.30;95844.60;;;;108694;1274;42394;-55
2022/11/18 12:20:35;;;;;;;5.40;2.10;;;;;24.30;95836.80;;;;108693;1273;42310;-56
2022/11/18 12:23:17;;;;;;;11.20;1.90;;;;;24.30;95832.60;;;;108655;1274;41230;-55
2022/11/18 12:25:51;;;;;;;6.10;2.20;;;;;24.20;95826.80;;;;108608;1267;42362;-55
2022/11/18 12:28:30;;;;;;;3.90;1.80;;;;;24.20;95821.40;;;;108668;1258;40887;-49
2022/11/18 12:31:15;;;;;;;5.80;2.30;;;;;24.20;95818.00;;;;108578;1274;41232;-54
2022/11/18 12:33:56;;;;;;;5.10;2.00;;;;;24.20;95818.20;;;;108611;1275;41473;-54
2022/11/18 12:36:32;;;;;;;4.50;1.90;;;;;24.10;95820.00;;;;108557;1275;41419;-54
2022/11/18 12:39:22;;;;;;;4.80;1.80;;;;;24.10;95818.20;;;;108644;1273;42410;-56
2022/11/18 12:44:46;;;;;;;4.40;1.80;;;;;24.10;95813.80;;;;108590;1269;41251;-53
2022/11/18 12:47:41;;;;;;;4.20;1.90;;;;;24.00;95822.20;;;;108624;1270;41171;-54
2022/11/18 12:50:12;;;;;;;4.50;1.80;;;;;24.00;95816.80;;;;108612;1275;41237;-53
2022/11/18 12:52:41;;;;;;;5.40;1.80;;;;;23.96;95813.80;;;;108615;1275;41845;-51
2022/11/18 12:55:18;;;;;;;5.00;1.90;;;;;23.90;95816.40;;;;108636;1275;41699;-50
2022/11/18 12:57:47;;;;;;;4.50;1.70;;;;;23.90;95812.40;;;;108589;1274;41230;-53
2022/11/18 13:00:27;;;;;;;4.20;1.80;;;;;23.86;95813.80;;;;108589;1273;41246;-54
2022/11/18 13:02:58;;;;;;;4.40;1.70;;;;;23.80;95815.60;;;;108628;1273;41693;-51
2022/11/18 13:05:32;;;;;;;3.20;1.60;;;;;23.80;95811.20;;;;108604;1269;41924;-59
2022/11/18 13:08:12;;;;;;;6.40;1.80;;;;;23.78;95813.00;;;;108624;1274;41150;-51
2022/11/18 13:10:50;;;;;;;6.10;2.00;;;;;23.70;95813.00;;;;108664;1274;41142;-55
2022/11/18 13:13:32;;;;;;;3.50;1.70;;;;;23.70;95818.60;;;;108725;1275;41221;-53
2022/11/18 13:19:05;;;;;;;4.00;1.80;;;;;23.60;95811.20;;;;108756;1274;41256;-50
2022/11/18 13:24:23;;;;;;;5.40;2.00;;;;;23.50;95802.80;;;;108664;1270;41154;-59